createdAt,value
2022-08-07T00:01:12.539Z,0.50
2022-08-07T00:03:52.133Z,0.40
2022-08-07T00:06:33.019Z,0.57
2022-08-07T00:09:16.639Z,0.65
2022-08-07T00:11:54.224Z,0.40
2022-08-07T00:14:30.532Z,0.40
2022-08-07T00:17:00.202Z,0.52
2022-08-07T00:19:34.038Z,0.50
2022-08-07T00:22:24.583Z,0.40
2022-08-07T00:25:01.571Z,0.40
2022-08-07T00:27:51.694Z,0.60
2022-08-07T00:30:26.718Z,0.47
2022-08-07T00:32:55.161Z,0.40
2022-08-07T00:35:23.087Z,0.50
2022-08-07T00:37:50.437Z,0.47
2022-08-07T00:40:36.594Z,0.40
2022-08-07T00:43:06.125Z,0.60
2022-08-07T00:45:36.817Z,0.50
2022-08-07T00:48:18.482Z,0.45
2022-08-07T00:50:50.385Z,0.50
2022-08-07T00:53:20.177Z,0.60
2022-08-07T00:56:02.795Z,0.40
2022-08-07T00:58:31.325Z,0.40
2022-08-07T01:00:58.764Z,0.47
2022-08-07T01:03:57.021Z,0.50
2022-08-07T01:06:12.760Z,0.40
2022-08-07T01:08:51.251Z,0.40
2022-08-07T01:12:24.038Z,0.30
2022-08-07T01:14:08.892Z,0.65
2022-08-07T01:16:37.040Z,0.40
2022-08-07T01:19:18.550Z,0.40
2022-08-07T01:21:48.595Z,0.30
2022-08-07T01:24:18.707Z,0.38
2022-08-07T01:26:51.650Z,0.40
2022-08-07T01:29:19.701Z,0.50
2022-08-07T01:31:48.207Z,0.50
2022-08-07T01:34:17.724Z,0.30
2022-08-07T01:36:52.382Z,0.40
2022-08-07T01:39:22.567Z,0.40
2022-08-07T01:42:07.647Z,0.50
2022-08-07T01:44:41.841Z,0.52
2022-08-07T01:47:14.528Z,0.40
2022-08-07T01:49:56.010Z,0.60
2022-08-07T01:52:25.843Z,0.47
2022-08-07T01:54:56.149Z,0.20
2022-08-07T01:57:28.834Z,0.50
2022-08-07T02:00:13.058Z,0.40
2022-08-07T02:03:18.387Z,0.40
2022-08-07T02:05:59.461Z,0.38
2022-08-07T02:08:29.284Z,0.60
2022-08-07T02:10:59.227Z,0.50
2022-08-07T02:13:57.230Z,0.35
2022-08-07T02:16:19.895Z,0.50
2022-08-07T02:18:56.175Z,0.40
2022-08-07T02:21:24.081Z,0.50
2022-08-07T02:23:53.065Z,0.40
2022-08-07T02:26:32.446Z,0.43
2022-08-07T02:29:04.713Z,0.47
2022-08-07T02:31:32.776Z,0.35
2022-08-07T02:34:04.191Z,0.52
2022-08-07T02:36:39.370Z,0.32
2022-08-07T02:39:16.616Z,0.40
2022-08-07T02:41:54.477Z,0.50
2022-08-07T02:44:26.814Z,0.50
2022-08-07T02:47:02.965Z,0.32
2022-08-07T02:49:57.521Z,0.40
2022-08-07T02:52:31.170Z,0.50
2022-08-07T02:55:02.730Z,0.68
2022-08-07T02:57:34.182Z,0.40
2022-08-07T03:00:04.985Z,0.50
2022-08-07T03:02:41.875Z,0.50
2022-08-07T03:05:23.102Z,0.55
2022-08-07T03:08:04.865Z,0.40
2022-08-07T03:10:34.800Z,0.50
2022-08-07T03:13:08.228Z,0.35
2022-08-07T03:15:55.894Z,0.40
2022-08-07T03:18:36.318Z,0.30
2022-08-07T03:21:04.921Z,0.40
2022-08-07T03:24:20.438Z,0.45
2022-08-07T03:26:28.208Z,0.32
2022-08-07T03:28:56.947Z,0.40
2022-08-07T03:31:42.538Z,0.50
2022-08-07T03:34:18.619Z,0.57
2022-08-07T03:36:51.227Z,0.50
2022-08-07T03:39:45.961Z,0.40
2022-08-07T03:42:09.119Z,0.50
2022-08-07T03:44:37.503Z,0.50
2022-08-07T03:47:11.215Z,0.40
2022-08-07T03:49:41.092Z,0.40
2022-08-07T03:52:22.898Z,0.40
2022-08-07T03:55:06.803Z,0.50
2022-08-07T03:58:32.676Z,0.52
2022-08-07T04:00:30.339Z,0.55
2022-08-07T04:03:04.186Z,0.38
2022-08-07T04:05:40.131Z,0.60
2022-08-07T04:08:16.063Z,0.50
2022-08-07T04:10:54.774Z,0.40
2022-08-07T04:14:33.269Z,0.40
2022-08-07T04:16:31.163Z,0.28
2022-08-07T04:19:04.203Z,0.40
2022-08-07T04:21:39.777Z,0.45
2022-08-07T04:24:33.817Z,0.40
2022-08-07T04:27:02.773Z,0.70
2022-08-07T04:29:40.545Z,0.40
2022-08-07T04:32:18.070Z,0.30
2022-08-07T04:34:55.416Z,0.50
2022-08-07T04:37:22.357Z,0.47
2022-08-07T04:39:50.786Z,0.60
2022-08-07T04:42:17.508Z,0.60
2022-08-07T04:44:54.805Z,0.45
2022-08-07T04:47:57.222Z,0.30
2022-08-07T04:50:39.296Z,0.40
2022-08-07T04:53:16.514Z,0.50
2022-08-07T04:58:12.099Z,0.60
2022-08-07T05:00:11.845Z,0.50
2022-08-07T05:02:20.635Z,0.40
2022-08-07T05:05:53.231Z,0.45
2022-08-07T05:08:59.652Z,0.52
2022-08-07T05:11:27.542Z,0.40
2022-08-07T05:14:55.529Z,0.40
2022-08-07T05:17:11.915Z,0.60
2022-08-07T05:19:45.217Z,0.60
2022-08-07T05:22:19.109Z,0.43
2022-08-07T05:24:57.062Z,0.40
2022-08-07T05:28:03.370Z,0.50
2022-08-07T05:30:11.952Z,0.35
2022-08-07T05:32:40.825Z,0.47
2022-08-07T05:35:10.151Z,0.60
2022-08-07T05:37:42.253Z,0.60
2022-08-07T05:42:56.083Z,0.52
2022-08-07T05:45:46.249Z,0.40
2022-08-07T05:48:11.644Z,0.43
2022-08-07T05:50:39.594Z,0.50
2022-08-07T05:54:12.381Z,0.43
2022-08-07T05:56:03.600Z,0.50
2022-08-07T05:58:36.658Z,0.45
2022-08-07T06:01:10.368Z,0.50
2022-08-07T06:03:57.223Z,0.50
2022-08-07T06:06:30.026Z,0.50
2022-08-07T06:08:59.740Z,0.50
2022-08-07T06:11:26.744Z,2.60
2022-08-07T06:14:12.538Z,2.35
2022-08-07T06:16:50.279Z,2.80
2022-08-07T06:19:58.038Z,2.15
2022-08-07T06:22:15.282Z,2.60
2022-08-07T06:24:56.840Z,2.40
2022-08-07T06:27:44.270Z,2.25
2022-08-07T06:30:24.145Z,2.55
2022-08-07T06:32:59.120Z,2.33
2022-08-07T06:35:39.149Z,2.50
2022-08-07T06:38:19.238Z,2.13
2022-08-07T06:40:50.135Z,2.20
2022-08-07T06:43:21.443Z,2.03
2022-08-07T06:45:49.409Z,2.33
2022-08-07T06:48:16.217Z,2.17
2022-08-07T06:50:53.300Z,2.10
2022-08-07T06:54:12.064Z,4.90
2022-08-07T06:56:15.075Z,2.70
2022-08-07T07:00:14.547Z,2.78
2022-08-07T07:01:44.025Z,2.75
2022-08-07T07:04:28.071Z,2.63
2022-08-07T07:09:30.834Z,2.17
2022-08-07T07:12:16.676Z,2.10
2022-08-07T07:15:01.081Z,1.60
2022-08-07T07:17:38.808Z,1.30
2022-08-07T07:20:15.098Z,1.42
2022-08-07T07:24:08.191Z,1.42
2022-08-07T07:26:35.786Z,1.50
2022-08-07T07:28:42.507Z,1.40
2022-08-07T07:31:23.498Z,1.20
2022-08-07T07:33:57.108Z,1.27
2022-08-07T07:36:24.873Z,1.20
2022-08-07T07:39:02.267Z,1.30
2022-08-07T07:41:50.743Z,1.15
2022-08-07T07:44:25.733Z,1.33
2022-08-07T07:47:04.267Z,1.35
2022-08-07T07:50:34.145Z,1.38
2022-08-07T07:52:30.463Z,1.25
2022-08-07T07:54:58.950Z,0.95
2022-08-07T07:57:44.363Z,1.13
2022-08-07T08:00:20.842Z,1.13
2022-08-07T08:03:01.303Z,1.10
2022-08-07T08:05:43.203Z,0.88
2022-08-07T08:08:34.763Z,1.00
2022-08-07T08:11:08.636Z,0.98
2022-08-07T08:13:54.006Z,0.70
2022-08-07T08:16:29.581Z,1.38
2022-08-07T08:19:00.314Z,1.52
2022-08-07T08:22:03.012Z,1.23
2022-08-07T08:25:04.719Z,1.10
2022-08-07T08:27:43.918Z,1.20
2022-08-07T08:30:24.281Z,1.10
2022-08-07T08:32:56.812Z,1.10
2022-08-07T08:35:28.648Z,0.98
2022-08-07T08:38:04.770Z,0.88
2022-08-07T08:40:40.266Z,0.88
2022-08-07T08:43:42.453Z,0.93
2022-08-07T08:46:16.985Z,1.08
2022-08-07T08:49:17.038Z,0.80
2022-08-07T08:52:19.662Z,1.00
2022-08-07T08:55:07.749Z,1.00
2022-08-07T08:57:46.686Z,0.75
2022-08-07T09:00:14.944Z,0.82
2022-08-07T09:03:11.301Z,0.88
2022-08-07T09:05:58.512Z,0.82
2022-08-07T09:08:46.807Z,0.85
2022-08-07T09:11:24.318Z,1.00
2022-08-07T09:14:20.180Z,0.90
2022-08-07T09:17:21.792Z,0.85
2022-08-07T09:20:35.520Z,0.90
2022-08-07T09:24:55.559Z,0.93
2022-08-07T09:26:22.565Z,0.82
2022-08-07T09:30:00.735Z,0.90
2022-08-07T09:32:02.089Z,0.70
2022-08-07T09:34:53.630Z,0.68
2022-08-07T09:37:53.666Z,0.73
2022-08-07T09:40:54.033Z,0.80
2022-08-07T09:44:03.622Z,0.70
2022-08-07T09:47:55.116Z,1.00
2022-08-07T09:50:02.204Z,0.80
2022-08-07T09:52:57.267Z,0.90
2022-08-07T09:56:03.510Z,0.60
2022-08-07T09:58:55.255Z,0.70
2022-08-07T10:01:53.044Z,0.88
2022-08-07T10:04:45.993Z,0.75
2022-08-07T10:07:39.685Z,0.60
2022-08-07T10:13:55.588Z,0.88
2022-08-07T10:16:50.490Z,0.63
2022-08-07T10:19:38.608Z,0.73
2022-08-07T10:22:33.274Z,0.63
2022-08-07T10:25:00.656Z,0.70
2022-08-07T10:28:03.192Z,0.70
2022-08-07T10:30:54.841Z,0.77
2022-08-07T10:34:14.299Z,0.60
2022-08-07T10:36:45.567Z,0.50
2022-08-07T10:40:02.648Z,0.60
2022-08-07T10:42:46.912Z,0.63
2022-08-07T10:45:45.219Z,0.70
2022-08-07T10:48:14.560Z,0.60
2022-08-07T10:50:52.038Z,0.60
2022-08-07T10:53:47.349Z,0.52
2022-08-07T10:56:30.894Z,0.60
2022-08-07T10:59:31.916Z,0.70
2022-08-07T11:02:58.554Z,0.77
2022-08-07T11:05:50.423Z,0.75
2022-08-07T11:08:29.082Z,0.90
2022-08-07T11:11:03.785Z,0.52
2022-08-07T11:14:45.196Z,0.73
2022-08-07T11:16:45.885Z,0.75
2022-08-07T11:19:39.090Z,0.80
2022-08-07T11:22:32.311Z,0.80
2022-08-07T11:25:16.759Z,0.90
2022-08-07T11:28:02.980Z,0.85
2022-08-07T11:31:27.837Z,0.70
2022-08-07T11:34:20.218Z,0.80
2022-08-07T11:36:56.635Z,0.98
2022-08-07T11:40:00.771Z,0.95
2022-08-07T11:43:00.867Z,0.88
2022-08-07T11:45:36.502Z,1.10
2022-08-07T11:48:40.670Z,0.80
2022-08-07T11:51:10.365Z,0.70
2022-08-07T11:54:26.376Z,0.73
2022-08-07T11:57:15.566Z,0.93
2022-08-07T12:00:10.292Z,0.80
2022-08-07T12:03:44.423Z,0.75
2022-08-07T12:06:37.694Z,1.00
2022-08-07T12:09:24.508Z,0.85
2022-08-07T12:12:09.065Z,0.77
2022-08-07T12:15:01.424Z,0.63
2022-08-07T12:17:37.347Z,0.70
2022-08-07T12:20:29.740Z,0.80
2022-08-07T12:23:14.504Z,0.70
2022-08-07T12:26:22.853Z,0.80
2022-08-07T12:29:12.888Z,0.50
2022-08-07T12:32:04.753Z,0.80
2022-08-07T12:34:38.720Z,0.57
2022-08-07T12:37:16.956Z,0.70
2022-08-07T12:39:52.884Z,0.70
2022-08-07T12:42:27.764Z,0.88
2022-08-07T12:44:58.153Z,0.73
2022-08-07T12:47:55.513Z,0.65
2022-08-07T12:50:40.319Z,0.60
2022-08-07T12:53:21.854Z,0.70
2022-08-07T12:56:04.271Z,0.85
2022-08-07T12:58:40.329Z,0.63
2022-08-07T13:01:32.159Z,0.68
2022-08-07T13:04:31.608Z,0.75
2022-08-07T13:08:14.029Z,0.50
2022-08-07T13:10:39.277Z,0.45
2022-08-07T13:13:48.647Z,0.60
2022-08-07T13:16:22.437Z,0.75
2022-08-07T13:19:11.488Z,0.85
2022-08-07T13:22:19.900Z,0.60
2022-08-07T13:25:04.096Z,0.60
2022-08-07T13:28:10.904Z,0.63
2022-08-07T13:30:44.134Z,0.80
2022-08-07T13:34:31.568Z,0.70
2022-08-07T13:36:18.883Z,0.60
2022-08-07T13:39:28.190Z,0.63
2022-08-07T13:41:59.017Z,0.60
2022-08-07T13:44:34.576Z,0.77
2022-08-07T13:47:09.215Z,0.47
2022-08-07T13:50:35.744Z,0.93
2022-08-07T13:52:38.057Z,0.60
2022-08-07T13:55:19.332Z,0.68
2022-08-07T13:58:20.606Z,0.70
2022-08-07T14:00:56.560Z,1.17
2022-08-07T14:04:07.541Z,0.82
2022-08-07T14:06:17.617Z,0.73
2022-08-07T14:08:53.785Z,0.80
2022-08-07T14:11:22.690Z,0.70
2022-08-07T14:13:55.688Z,0.50
2022-08-07T14:16:34.100Z,0.60
2022-08-07T14:19:11.304Z,0.60
2022-08-07T14:22:02.235Z,0.50
2022-08-07T14:24:45.188Z,0.57
2022-08-07T14:27:16.173Z,0.50
2022-08-07T14:30:11.442Z,0.57
2022-08-07T14:32:47.163Z,0.63
2022-08-07T14:35:42.920Z,0.68
2022-08-07T14:38:26.552Z,0.80
2022-08-07T14:40:59.059Z,0.50
2022-08-07T14:43:55.355Z,0.60
2022-08-07T14:46:20.944Z,0.50
2022-08-07T14:48:58.570Z,0.40
2022-08-07T14:51:27.980Z,0.70
2022-08-07T14:57:06.457Z,0.40
2022-08-07T15:00:03.214Z,0.70
2022-08-07T15:02:31.647Z,0.50
2022-08-07T15:05:02.445Z,0.47
2022-08-07T15:10:26.840Z,0.60
2022-08-07T15:13:00.667Z,0.50
2022-08-07T15:15:40.486Z,0.43
2022-08-07T15:18:33.559Z,0.63
2022-08-07T15:21:08.032Z,0.38
2022-08-07T15:25:13.406Z,0.63
2022-08-07T15:26:38.625Z,0.30
2022-08-07T15:30:09.567Z,0.50
2022-08-07T15:32:02.446Z,0.60
2022-08-07T15:34:50.195Z,0.75
2022-08-07T15:37:27.990Z,0.47
2022-08-07T15:39:59.292Z,0.43
2022-08-07T15:42:48.124Z,0.60
2022-08-07T15:48:26.506Z,0.60
2022-08-07T15:51:08.900Z,0.45
2022-08-07T15:53:53.796Z,0.63
2022-08-07T15:56:36.930Z,0.57
2022-08-07T15:59:17.306Z,0.50
2022-08-07T16:02:02.547Z,0.45
2022-08-07T16:04:33.389Z,0.32
2022-08-07T16:07:04.974Z,0.40
2022-08-07T16:09:53.980Z,0.50
2022-08-07T16:12:31.370Z,0.40
2022-08-07T16:15:54.601Z,0.40
2022-08-07T16:18:50.078Z,0.50
2022-08-07T16:22:04.079Z,0.40
2022-08-07T16:24:52.374Z,0.50
2022-08-07T16:27:39.808Z,0.40
2022-08-07T16:30:30.479Z,0.50
2022-08-07T16:34:01.599Z,0.50
2022-08-07T16:36:02.917Z,0.50
2022-08-07T16:39:02.268Z,0.50
2022-08-07T16:41:48.634Z,0.70
2022-08-07T16:45:14.901Z,0.50
2022-08-07T16:48:05.364Z,0.38
2022-08-07T16:51:54.138Z,0.70
2022-08-07T16:54:36.520Z,0.60
2022-08-07T16:57:12.989Z,0.60
2022-08-07T16:59:59.184Z,0.47
2022-08-07T17:03:06.235Z,0.50
2022-08-07T17:06:19.974Z,0.60
2022-08-07T17:10:08.441Z,0.60
2022-08-07T17:12:34.311Z,0.70
2022-08-07T17:15:19.967Z,0.90
2022-08-07T17:17:47.346Z,0.55
2022-08-07T17:20:37.554Z,1.00
2022-08-07T17:23:22.234Z,0.80
2022-08-07T17:26:23.276Z,0.50
2022-08-07T17:29:07.600Z,0.63
2022-08-07T17:32:02.582Z,0.57
2022-08-07T17:35:33.093Z,0.43
2022-08-07T17:38:05.602Z,0.70
2022-08-07T17:40:33.933Z,0.70
2022-08-07T17:43:18.098Z,0.60
2022-08-07T17:45:54.961Z,0.57
2022-08-07T17:48:30.540Z,0.60
2022-08-07T17:51:16.398Z,0.80
2022-08-07T17:53:59.966Z,0.65
2022-08-07T17:56:35.147Z,0.43
2022-08-07T17:59:10.639Z,0.60
2022-08-07T18:01:56.577Z,0.52
2022-08-07T18:04:30.790Z,0.70
2022-08-07T18:07:22.879Z,0.55
2022-08-07T18:10:06.453Z,0.88
2022-08-07T18:13:15.356Z,0.52
2022-08-07T18:16:33.239Z,0.60
2022-08-07T18:21:05.869Z,0.60
2022-08-07T18:22:15.225Z,0.60
2022-08-07T18:24:51.216Z,0.40
2022-08-07T18:27:38.104Z,0.55
2022-08-07T18:30:31.875Z,0.50
2022-08-07T18:33:15.581Z,0.40
2022-08-07T18:36:32.992Z,0.40
2022-08-07T18:40:08.567Z,0.47
2022-08-07T18:42:13.149Z,0.50
2022-08-07T18:45:44.658Z,0.47
2022-08-07T18:48:07.567Z,0.82
2022-08-07T18:50:45.713Z,0.45
2022-08-07T18:53:39.187Z,0.50
2022-08-07T18:56:16.222Z,0.60
2022-08-07T18:59:03.204Z,0.70
2022-08-07T19:02:18.198Z,0.98
2022-08-07T19:05:10.459Z,0.65
2022-08-07T19:08:20.375Z,1.02
2022-08-07T19:10:55.302Z,0.90
2022-08-07T19:13:28.483Z,0.57
2022-08-07T19:17:01.227Z,0.85
2022-08-07T19:19:31.943Z,0.60
2022-08-07T19:22:07.209Z,0.80
2022-08-07T19:24:46.102Z,0.70
2022-08-07T19:28:29.075Z,0.70
2022-08-07T19:30:55.248Z,0.90
2022-08-07T19:33:10.099Z,0.77
2022-08-07T19:35:41.218Z,0.68
2022-08-07T19:38:16.773Z,0.55
2022-08-07T19:40:49.879Z,0.60
2022-08-07T19:43:45.520Z,0.60
2022-08-07T19:46:17.852Z,0.90
2022-08-07T19:48:54.111Z,0.80
2022-08-07T19:51:51.033Z,0.65
2022-08-07T19:54:29.946Z,0.93
2022-08-07T19:58:03.120Z,0.60
2022-08-07T19:59:53.457Z,0.70
2022-08-07T20:02:34.858Z,0.70
2022-08-07T20:05:08.919Z,0.90
2022-08-07T20:07:46.364Z,0.80
2022-08-07T20:10:37.166Z,0.85
2022-08-07T20:13:22.930Z,0.80
2022-08-07T20:15:53.771Z,0.77
2022-08-07T20:18:21.740Z,0.60
2022-08-07T20:21:02.132Z,0.80
2022-08-07T20:23:40.835Z,0.60
2022-08-07T20:26:12.866Z,0.70
2022-08-07T20:28:51.770Z,0.68
2022-08-07T20:31:23.130Z,0.60
2022-08-07T20:33:57.496Z,0.77
2022-08-07T20:36:27.361Z,0.80
2022-08-07T20:39:00.447Z,1.00
2022-08-07T20:41:38.375Z,0.63
2022-08-07T20:44:12.365Z,0.68
2022-08-07T20:46:43.799Z,0.95
2022-08-07T20:49:58.311Z,0.80
2022-08-07T20:52:01.929Z,0.80
2022-08-07T20:54:33.423Z,0.70
2022-08-07T20:57:04.478Z,0.70
2022-08-07T21:00:08.219Z,0.63
2022-08-07T21:02:54.572Z,0.65
2022-08-07T21:05:50.882Z,0.95
2022-08-07T21:08:41.947Z,0.70
2022-08-07T21:11:22.435Z,0.90
2022-08-07T21:14:32.968Z,0.68
2022-08-07T21:18:01.245Z,0.70
2022-08-07T21:20:00.865Z,0.80
2022-08-07T21:22:39.060Z,0.60
2022-08-07T21:25:20.740Z,0.80
2022-08-07T21:28:02.296Z,0.90
2022-08-07T21:30:52.116Z,0.65
2022-08-07T21:33:41.228Z,0.52
2022-08-07T21:36:31.114Z,0.50
2022-08-07T21:39:46.507Z,0.63
2022-08-07T21:46:08.734Z,0.60
2022-08-07T21:48:43.960Z,0.60
2022-08-07T21:54:15.358Z,0.65
2022-08-07T21:57:16.150Z,0.50
2022-08-07T22:00:27.459Z,0.50
2022-08-07T22:03:30.868Z,0.60
2022-08-07T22:06:30.532Z,0.70
2022-08-07T22:09:10.355Z,0.50
2022-08-07T22:12:05.325Z,0.60
2022-08-07T22:14:38.846Z,0.65
2022-08-07T22:17:35.786Z,0.60
2022-08-07T22:20:06.582Z,0.45
2022-08-07T22:22:49.480Z,0.60
2022-08-07T22:25:27.165Z,0.55
2022-08-07T22:28:31.779Z,0.50
2022-08-07T22:31:56.132Z,0.40
2022-08-07T22:34:19.761Z,0.38
2022-08-07T22:37:16.804Z,0.60
2022-08-07T22:39:56.180Z,0.63
2022-08-07T22:42:53.846Z,0.60
2022-08-07T22:46:04.640Z,0.50
2022-08-07T22:48:13.727Z,0.70
2022-08-07T22:51:17.167Z,0.50
2022-08-07T22:54:06.871Z,0.52
2022-08-07T22:57:05.206Z,0.40
2022-08-07T22:59:52.032Z,0.50
2022-08-07T23:02:39.376Z,0.60
2022-08-07T23:06:07.167Z,0.55
2022-08-07T23:08:22.558Z,0.57
2022-08-07T23:11:15.907Z,0.50
2022-08-07T23:14:15.200Z,0.40
2022-08-07T23:17:03.201Z,0.52
2022-08-07T23:19:51.976Z,0.57
2022-08-07T23:23:09.672Z,0.50
2022-08-07T23:25:58.144Z,0.40
2022-08-07T23:29:02.416Z,0.57
2022-08-07T23:32:50.113Z,0.40
2022-08-07T23:34:40.652Z,0.70
2022-08-07T23:37:22.545Z,0.50
2022-08-07T23:42:58.311Z,0.40
2022-08-07T23:46:02.676Z,0.40
2022-08-07T23:48:40.844Z,0.55
2022-08-07T23:53:08.844Z,0.40
2022-08-07T23:54:19.928Z,0.60
2022-08-07T23:57:42.420Z,0.50
